1985 MARGOT (1985100S07104)


On this page: IBTrACS data - Map and Plots - Positions - Intensities - Original source data

Summary

Start Apr 10
End Apr 25
Basin SI
LMI 105 kt
Sources jtwc_sh
bom
td9636
neumann
In WMO? Yes
Previous storm 1985 HELISAONIN (SI)
Previous in basin 1985 HELISAONIN (SI)
Concurrent storms 1985 HELISAONIN (SI)
1985 MARGOT (SI)
1985 GRETEL (SP)
1985 TD0422 (WP)
Next in basin 1985 GRETEL (SP)
Next storm 1985 GRETEL (SP)

top of page IBTrACS Data: File Access

top of page HURSAT Data: File Access

Image of storm

top of page Plots:

Map of storm track will not appear if FTP is down
Time series of cyclone Maximum Sustained Wind will not appear if FTP is down
Time series of cyclone Minimum Central Pressure will not appear if FTP is down

top of page Track Data:Position

jtwc_sh bom td9636 neumann
Date Lat Lon Lat Lon Lat Lon Lat Lon
1985-04-10 06:00:00 -6.8 103.8 -6.8 103.9
1985-04-10 12:00:00 -6.9 103.8 -6.9 104.0
1985-04-10 18:00:00 -7.0 103.9 -7.0 104.0
1985-04-11 00:00:00 -7.1 103.9 -7.1 103.9
1985-04-11 06:00:00 -7.3 103.5 -7.3 103.6
1985-04-11 12:00:00 -7.5 103.1 -7.5 103.1
1985-04-11 18:00:00 -7.8 102.6 -7.8 102.6
1985-04-12 00:00:00 -8.1 102.0 -8.1 102.0
1985-04-12 06:00:00 -8.7 100.3 -8.3 101.2 -8.4 101.2 -8.7 100.3
1985-04-12 12:00:00 -8.8 99.4 -8.7 100.3 -8.7 100.3 -8.8 99.4
1985-04-12 18:00:00 -9.1 99.0 -9.3 99.4 -9.2 99.5 -9.1 99.0
1985-04-13 00:00:00 -9.5 98.9 -9.6 98.9 -9.6 98.9 -9.5 98.9
1985-04-13 06:00:00 -10.0 99.2 -9.8 98.7 -9.8 98.7 -10.0 99.2
1985-04-13 12:00:00 -10.5 99.7 -10.0 99.0 -10.0 99.0 -10.5 99.7
1985-04-13 18:00:00 -11.0 100.3 -10.3 99.8 -10.3 99.8 -11.0 100.3
1985-04-14 00:00:00 -11.5 100.8 -10.9 100.8 -10.9 100.8 -10.9 100.8
1985-04-14 06:00:00 -12.1 101.3 -11.7 101.5 -11.7 101.5 -11.7 101.5
1985-04-14 12:00:00 -13.1 102.0 -12.7 102.2 -12.7 102.2 -12.7 102.2
1985-04-14 18:00:00 -14.1 103.0 -13.9 103.1 -13.8 103.2 -13.9 103.1
1985-04-15 00:00:00 -14.7 104.3 -14.9 104.3 -14.9 104.3 -14.9 104.3
1985-04-15 06:00:00 -15.4 105.5 -15.9 105.5 -15.8 105.5 -15.9 105.5
1985-04-15 12:00:00 -16.3 106.4 -16.7 106.6 -16.7 106.6 -16.7 106.6
1985-04-15 18:00:00 -17.3 107.3 -17.6 107.5 -17.6 107.5 -17.6 107.5
1985-04-16 00:00:00 -18.0 108.2 -18.3 108.3 -18.3 108.3 -18.3 108.3
1985-04-16 06:00:00 -18.6 109.0 -18.8 109.1 -18.8 109.1 -18.8 109.1
jtwc_sh bom td9636 neumann
1985-04-16 12:00:00 -19.0 109.6 -19.0 109.8 -19.0 109.8 -19.0 109.8
1985-04-16 18:00:00 -19.0 110.1 -19.1 110.4 -19.0 110.4 -19.1 110.4
1985-04-17 00:00:00 -18.8 110.6 -18.9 110.8 -18.9 110.8 -18.9 110.8
1985-04-17 06:00:00 -18.6 110.8 -18.5 110.9 -18.6 110.9 -18.5 110.9
1985-04-17 12:00:00 -18.3 110.7 -18.3 110.8 -18.3 110.8 -18.3 110.8
1985-04-17 18:00:00 -18.1 110.6 -18.2 110.5 -18.2 110.7 -18.2 110.5
1985-04-18 00:00:00 -17.9 110.5 -18.1 110.3 -18.2 110.5 -18.1 110.3
1985-04-18 06:00:00 -17.7 110.3 -17.9 110.1 -18.0 110.3 -17.9 110.1
1985-04-18 12:00:00 -17.5 110.2 -17.8 110.2 -17.8 110.2 -17.8 110.2
1985-04-18 18:00:00 -17.4 110.0 -17.6 110.2 -17.6 110.2 -17.6 110.2
1985-04-19 00:00:00 -17.4 110.3 -17.4 110.3 -17.4 110.3
1985-04-19 06:00:00 -17.2 110.8 -17.3 110.7 -17.2 110.8
1985-04-19 12:00:00 -17.3 111.2 -17.3 111.2 -17.3 111.2
1985-04-19 18:00:00 -17.5 111.6 -17.5 111.6 -17.5 111.6
1985-04-20 00:00:00 -17.7 111.8 -17.7 111.8 -17.7 111.8
1985-04-20 06:00:00 -17.8 111.6 -17.8 111.7 -17.8 111.6
1985-04-20 12:00:00 -17.9 111.4 -17.9 111.4 -17.9 111.4
1985-04-20 18:00:00 -18.0 111.2 -18.0 111.2 -18.0 111.2
1985-04-21 00:00:00 -18.0 111.0 -18.0 111.0 -18.0 111.0
1985-04-21 06:00:00 -18.1 110.9 -18.1 110.9 -18.1 110.9
1985-04-21 12:00:00 -18.1 110.8 -18.1 110.8 -18.1 110.8
1985-04-21 18:00:00 -18.1 110.7 -18.1 110.7 -18.1 110.7
1985-04-22 00:00:00 -18.1 110.6 -18.1 110.6 -18.1 110.6
1985-04-22 06:00:00 -18.0 110.5 -18.1 110.5 -18.0 110.5
jtwc_sh bom td9636 neumann
1985-04-22 12:00:00 -18.0 110.5 -18.0 110.5 -18.0 110.5
1985-04-22 18:00:00 -18.0 110.4 -17.9 110.4 -18.0 110.4
1985-04-23 00:00:00 -17.9 110.3 -17.9 110.3 -17.9 110.3
1985-04-23 06:00:00 -18.2 110.2 -18.2 110.2 -18.2 110.2
1985-04-23 12:00:00 -18.5 110.0 -18.5 110.0 -18.5 110.0
1985-04-23 18:00:00 -18.7 109.7 -18.7 109.7 -18.7 109.7
1985-04-24 00:00:00 -18.9 109.3 -18.9 109.3 -18.9 109.3
1985-04-24 06:00:00 -19.1 108.9 -19.1 109.0 -19.1 108.9
1985-04-24 12:00:00 -19.3 108.5 -19.3 108.5 -19.3 108.5
1985-04-24 18:00:00 -19.4 107.7 -19.4 107.8 -19.4 107.7
1985-04-25 00:00:00 -19.4 106.9 -19.4 106.9 -19.4 106.9

top of pageTrack Data:Intensity

jtwc_sh bom td9636 neumann
Date Wind Pres Wind Pres Wind Pres Wind Pres
1985-04-10 06:00:00 1005.
1985-04-10 12:00:00 1004.
1985-04-10 18:00:00 1004. 25.
1985-04-11 00:00:00 1002. 25.
1985-04-11 06:00:00 1000. 25.
1985-04-11 12:00:00 998. 25.
1985-04-11 18:00:00 35. 997. 25.
1985-04-12 00:00:00 45. 990. 45.
1985-04-12 06:00:00 35. 54. 985. 45. 35.
1985-04-12 12:00:00 40. 60. 980. 60. 40.
1985-04-12 18:00:00 45. 64. 976. 60. 45.
1985-04-13 00:00:00 45. 72. 971. 72. 45.
1985-04-13 06:00:00 50. 78. 966. 72. 50.
1985-04-13 12:00:00 55. 80. 964. 71. 55.
1985-04-13 18:00:00 60. 82. 962. 71. 70.
1985-04-14 00:00:00 60. 86. 959. 85. 90. 959.
1985-04-14 06:00:00 65. 89. 956. 85. 90. 956.
1985-04-14 12:00:00 65. 91. 954. 91. 95. 954.
1985-04-14 18:00:00 70. 101. 942. 91. 105. 942.
1985-04-15 00:00:00 65. 99. 946. 98. 105. 946.
1985-04-15 06:00:00 60. 93. 950. 98. 100. 950.
1985-04-15 12:00:00 60. 89. 954. 90. 95. 954.
1985-04-15 18:00:00 55. 84. 961. 90. 85. 961.
1985-04-16 00:00:00 55. 76. 968. 76. 75. 968.
1985-04-16 06:00:00 50. 66. 976. 76. 65. 976.
jtwc_sh bom td9636 neumann
1985-04-16 12:00:00 45. 60. 980. 60. 60. 980.
1985-04-16 18:00:00 40. 54. 984. 60. 55. 984.
1985-04-17 00:00:00 35. 52. 986. 52. 55. 986.
1985-04-17 06:00:00 30. 51. 988. 52. 50. 988.
1985-04-17 12:00:00 30. 47. 989. 48. 50. 989.
1985-04-17 18:00:00 30. 47. 990. 48. 45. 990.
1985-04-18 00:00:00 30. 47. 990. 46. 45. 990.
1985-04-18 06:00:00 30. 47. 989. 46. 50. 989.
1985-04-18 12:00:00 30. 51. 988. 50. 50. 988.
1985-04-18 18:00:00 25. 51. 987. 50. 50. 987.
1985-04-19 00:00:00 54. 985. 54. 55. 985.
1985-04-19 06:00:00 54. 984. 54. 55. 984.
1985-04-19 12:00:00 54. 985. 54. 55. 985.
1985-04-19 18:00:00 51. 987. 54. 50. 987.
1985-04-20 00:00:00 51. 988. 50. 50. 988.
1985-04-20 06:00:00 47. 989. 50. 50. 989.
1985-04-20 12:00:00 47. 990. 42. 45. 990.
1985-04-20 18:00:00 35. 997. 42. 35. 997.
1985-04-21 00:00:00 35. 997. 35. 35. 997.
1985-04-21 06:00:00 998. 35. 35. 998.
1985-04-21 12:00:00 998. 35. 998.
1985-04-21 18:00:00 999. 30. 999.
1985-04-22 00:00:00 1000. 30. 1000.
1985-04-22 06:00:00 1000. 30. 1000.
jtwc_sh bom td9636 neumann
1985-04-22 12:00:00 1001. 25. 1001.
1985-04-22 18:00:00 1001. 25. 1001.
1985-04-23 00:00:00 1002. 25. 1002.
1985-04-23 06:00:00 1003. 25. 1003.
1985-04-23 12:00:00 1003. 25. 1003.
1985-04-23 18:00:00 1004. 20. 1004.
1985-04-24 00:00:00 1005. 20. 1005.
1985-04-24 06:00:00 1006. 15. 1006.
1985-04-24 12:00:00 1007. 15. 1007.
1985-04-24 18:00:00 1007. 15. 1007.
1985-04-25 00:00:00 1008. 15. 1008.

top of page Links to source data

Source Source file Format
jtwc_sh bsh351985.txt ATCF
bom Newcyclonedatabase-08repair.csv:Line=14164:MARGOT CSV file (from Excel file)
td9636 cons_worldwide_trop_cyclone_18710101-19891231-006:Line=12455 TD 9636
neumann tracks.sh:Storm=750:MARGOT:BSH351985:BM740 HURDAT